Date,TemperatureHighF,TemperatureAvgF,TemperatureLowF,DewpointHighF,DewpointAvgF,DewpointLowF,HumidityHigh,HumidityAvg,HumidityLow,PressureMaxIn,PressureMinIn,WindSpeedMaxMPH,WindSpeedAvgMPH,GustSpeedMaxMPH,PrecipitationSumIn
2012-2-19,55.4,39.0,33.0,41.7,22.1,20.1,66,51,37,30.12,0.00,10,1,10,0.00
2012-2-20,53.8,41.0,25.5,28.3,24.1,20.5,88,55,27,30.24,29.85,14,3,14,0.00
2012-2-21,58.2,49.4,44.4,41.7,37.2,28.1,80,64,44,29.97,29.75,29,10,29,0.40
2012-2-22,64.3,53.6,43.6,53.1,43.5,32.6,92,69,50,29.83,29.44,18,5,18,0.00
2012-2-23,73.0,60.3,47.0,57.5,50.4,39.4,97,72,46,29.49,29.22,24,6,24,0.00
2012-2-24,56.4,45.2,37.5,41.3,27.8,20.7,66,50,39,30.14,29.47,28,13,28,0.00
2012-2-25,47.7,38.9,32.3,24.5,18.7,11.2,67,46,24,30.31,30.13,25,6,25,0.00
2012-2-26,62.9,47.5,32.1,29.2,23.6,16.7,62,41,24,30.28,30.10,16,4,16,0.00
2012-2-27,61.0,52.8,43.6,38.1,30.5,24.8,64,43,28,30.37,30.19,13,3,13,0.00
2012-2-28,71.0,55.5,38.6,59.7,39.6,24.8,87,56,39,30.34,29.81,17,3,17,0.38
2012-2-29,71.2,62.0,51.0,62.8,47.2,28.5,94,62,29,29.84,29.66,32,11,32,0.49
2012-3-1,69.7,56.7,41.8,38.5,31.7,27.3,62,40,22,29.91,29.61,14,3,14,0.00
2012-3-2,79.0,60.9,37.7,63.1,48.2,29.1,84,65,31,29.84,29.31,48,12,48,0.06
2012-3-3,55.3,43.0,33.7,34.8,25.1,16.8,85,53,25,29.94,29.83,24,7,24,0.00
2012-3-4,55.0,44.7,31.3,33.0,24.9,18.8,68,47,32,29.97,29.79,24,6,24,0.00
2012-3-5,49.9,41.0,32.4,31.1,23.7,19.9,69,51,32,30.44,29.98,30,5,30,0.00
2012-3-6,71.0,56.1,39.9,38.4,28.3,20.3,48,35,27,30.31,30.12,21,6,21,0.00
2012-3-7,72.8,62.7,54.1,53.7,42.8,27.1,63,49,32,30.20,30.01,20,8,20,0.00
2012-3-8,67.0,50.1,37.6,57.8,45.2,32.1,95,84,62,30.36,29.94,20,6,20,1.85
2012-3-9,57.9,46.4,35.6,32.4,26.3,20.0,82,49,27,30.47,30.34,16,3,16,0.00
2012-3-10,62.1,49.9,35.2,29.0,25.9,22.0,67,41,24,30.47,30.25,9,2,9,0.00
2012-3-11,64.7,55.4,46.2,55.7,40.8,27.5,92,60,43,30.26,30.00,17,5,17,0.20
2012-3-12,75.5,66.3,59.5,64.7,59.1,55.4,93,79,59,30.01,29.91,22,8,22,0.04
2012-3-13,80.1,68.3,61.0,63.0,60.0,57.6,95,76,52,30.09,29.99,15,4,15,0.00
2012-3-14,83.5,70.3,59.1,67.0,61.3,55.6,89,74,54,30.12,29.99,20,4,20,0.00
2012-3-15,75.5,66.9,58.6,64.6,60.7,55.3,94,81,68,30.18,30.01,23,3,23,0.91
2012-3-16,76.3,65.4,57.3,65.5,60.5,55.4,96,85,63,30.11,30.00,17,4,17,0.46
2012-3-17,78.4,68.3,59.7,67.2,60.2,57.1,94,77,57,30.09,29.99,15,2,15,0.00
2012-3-18,82.7,71.2,60.1,66.6,60.4,56.4,90,70,46,30.11,29.97,18,3,18,0.00
2012-3-19,82.3,73.3,66.4,63.4,56.8,49.1,76,58,33,30.02,29.86,12,4,12,0.00
2012-3-20,84.6,74.2,63.6,57.3,54.9,50.6,74,52,33,29.98,29.84,14,4,14,0.00
2012-3-21,81.6,74.7,66.7,59.7,56.6,53.9,65,54,44,29.99,29.87,16,6,16,0.00
2012-3-22,72.3,60.9,55.1,60.3,56.9,53.1,97,88,59,30.03,29.91,16,2,16,0.98
2012-3-23,68.4,59.9,52.1,61.6,54.7,45.8,98,84,49,29.94,29.77,26,5,26,0.01
2012-3-24,68.7,57.2,49.1,56.8,50.6,47.3,96,80,52,29.88,29.78,14,4,14,0.05
2012-3-25,69.3,60.9,53.5,58.1,54.4,50.8,97,80,62,30.01,29.87,12,2,12,0.00
2012-3-26,75.7,64.0,51.9,58.5,52.9,47.0,97,71,43,30.13,30.00,8,1,8,0.00
2012-3-27,81.7,66.8,52.4,57.7,47.8,34.4,64,51,35,30.12,29.95,15,3,15,0.00
2012-3-28,84.3,72.6,62.9,63.8,56.2,50.8,78,58,33,30.00,29.88,18,4,18,0.00
2012-3-29,83.7,71.4,61.4,62.9,56.1,50.1,83,61,33,29.93,29.81,14,2,14,0.00
2012-3-30,79.3,69.9,61.8,63.5,60.2,55.6,91,72,53,29.83,29.69,17,3,17,0.00
2012-3-31,80.7,66.8,57.8,64.2,59.7,55.8,97,80,48,29.84,29.74,6,0,6,0.00
2012-4-1,88.4,74.8,62.3,69.0,62.2,54.9,88,67,43,29.77,29.59,17,4,17,0.00
2012-4-2,90.6,77.2,65.7,68.8,64.3,61.0,90,66,40,29.78,29.61,14,4,14,0.00
2012-4-3,83.2,72.4,63.4,62.8,60.3,57.1,84,67,46,29.89,29.75,14,3,14,0.00
2012-4-4,83.3,70.3,59.5,64.1,60.1,57.6,95,72,45,29.80,29.60,10,2,10,0.00
2012-4-5,66.1,59.0,50.5,59.8,54.4,42.2,95,85,70,29.90,29.62,9,1,9,0.04
2012-4-6,64.3,52.5,42.7,42.3,37.0,30.8,80,58,29,30.12,29.90,8,2,8,0.00
2012-4-7,75.5,56.7,37.0,51.2,41.8,34.6,95,62,29,30.21,30.11,10,1,10,0.00
2012-4-8,69.3,59.2,45.4,49.0,41.6,32.1,84,55,27,30.27,30.14,12,2,12,0.00
2012-4-9,76.3,58.0,40.6,45.7,37.5,25.8,91,54,18,30.14,30.00,14,3,14,0.00
2012-4-10,67.7,55.5,41.0,44.8,33.5,22.1,85,48,20,30.12,30.00,22,3,22,0.00
2012-4-11,58.4,47.5,38.2,36.4,31.1,24.4,88,57,29,30.23,30.07,12,2,12,0.00
2012-4-12,67.0,50.5,32.1,41.0,33.8,29.4,93,58,26,30.27,30.09,9,1,9,0.00
2012-4-13,68.8,57.1,46.3,44.2,40.0,35.2,75,54,35,30.14,30.01,10,2,10,0.00
2012-4-14,82.8,69.3,59.0,63.3,54.6,43.9,71,60,43,30.01,29.84,26,6,26,0.00
2012-4-15,83.3,73.6,64.0,63.1,59.5,55.3,85,63,44,29.93,29.70,25,6,25,0.04
2012-4-16,67.7,58.8,51.2,59.3,52.1,47.1,95,80,50,30.19,29.76,24,7,24,0.45
2012-4-17,65.4,56.5,48.1,52.2,49.3,45.8,96,78,56,30.30,30.18,7,1,7,0.00
2012-4-18,75.1,58.8,43.6,51.4,45.3,39.7,97,67,30,30.20,30.01,6,1,6,0.00
2012-4-19,80.2,63.5,45.7,50.9,45.7,40.4,93,58,26,30.02,29.79,9,1,9,0.00
2012-4-20,74.3,58.2,48.1,56.0,50.4,43.2,92,76,48,29.91,29.74,17,4,17,0.03
2012-4-21,58.4,49.0,41.5,44.7,41.2,38.1,92,75,56,29.95,29.90,12,3,12,0.00
2012-4-22,59.0,49.1,37.8,50.6,42.0,31.3,97,78,53,30.00,29.84,18,3,18,0.04
2012-4-23,64.8,51.5,38.2,40.0,32.4,25.0,75,51,28,30.04,29.90,18,5,18,0.00
2012-4-24,77.7,61.6,45.7,48.0,42.3,38.4,80,53,27,29.90,29.65,18,7,18,0.00
2012-4-25,81.8,71.1,61.5,63.1,55.9,47.6,69,59,49,29.71,29.55,21,8,21,0.00
2012-4-26,88.7,74.8,62.5,67.2,59.3,50.9,78,60,36,29.91,29.62,20,6,20,0.00
2012-4-27,68.0,59.0,52.2,53.2,40.6,29.8,70,52,31,30.06,29.86,13,3,13,0.00
2012-4-28,85.5,71.8,56.5,65.1,59.3,48.8,93,67,45,29.94,29.81,17,4,17,0.00
2012-4-29,87.4,74.8,64.0,67.2,61.5,59.4,86,65,41,30.01,29.92,12,2,12,0.00
2012-4-30,84.3,72.2,64.2,71.2,63.9,59.3,90,76,54,29.98,29.87,22,4,22,0.15
2012-5-1,88.5,76.9,64.5,69.7,65.2,61.3,96,70,42,29.94,29.81,17,4,17,0.01
2012-5-2,92.5,81.1,69.2,68.7,65.5,62.1,85,61,41,29.95,29.85,16,4,16,0.00
2012-5-3,84.8,78.1,69.9,68.8,67.5,65.7,91,71,53,29.92,29.89,12,2,12,0.00
2012-5-4,90.8,78.6,68.7,73.5,68.8,65.6,94,74,50,29.95,29.80,14,3,14,0.00
2012-5-5,92.7,80.4,71.8,73.9,70.0,64.2,93,73,50,29.90,29.79,13,2,13,0.19
2012-5-6,94.0,79.2,67.4,74.7,67.5,58.4,94,71,36,29.88,29.76,12,2,12,0.02
2012-5-7,80.7,71.8,64.9,67.7,64.0,58.6,89,77,61,29.86,29.71,14,4,14,0.00
2012-5-8,79.3,68.2,56.6,63.3,55.5,46.6,94,67,37,29.92,29.83,12,3,12,0.00
2012-5-9,77.8,64.9,51.2,52.0,47.6,41.7,92,57,29,29.93,29.85,17,3,17,0.00
2012-5-10,75.5,58.6,32.0,99.9,49.0,44.8,94,71,36,29.98,0.00,7,0,7,0.00
2012-5-11,79.1,65.3,49.5,52.5,46.9,40.9,87,56,29,30.10,29.97,12,1,12,0.00
2012-5-12,73.3,64.7,59.1,59.1,55.0,50.5,89,72,49,30.14,30.07,4,0,4,0.00
2012-5-13,79.6,70.1,60.7,59.8,54.8,49.9,91,61,37,30.08,29.94,10,3,10,0.00
2012-5-14,78.1,66.6,56.6,59.9,55.1,48.7,88,68,48,30.02,29.93,8,1,8,0.00
2012-5-15,87.2,70.1,55.5,61.6,52.5,41.6,96,61,25,30.00,29.90,12,2,12,0.00
2012-5-16,90.2,71.6,54.5,69.7,54.7,49.1,93,60,26,29.97,29.86,15,2,15,0.07
2012-5-17,84.1,70.6,56.2,56.9,51.3,42.1,67,52,34,29.99,29.89,6,1,6,0.00
2012-5-18,91.6,76.0,60.2,66.1,59.8,54.5,86,61,34,29.97,29.86,9,1,9,0.00
2012-5-19,92.9,78.4,65.9,65.5,61.2,56.9,83,59,31,30.01,29.92,13,2,13,0.00
2012-5-20,93.2,74.7,64.6,67.2,63.1,57.5,94,70,37,30.06,29.92,16,3,16,0.20
2012-5-21,80.2,69.0,60.9,65.6,59.3,50.4,97,74,44,30.03,29.96,13,3,13,0.01
2012-5-22,78.1,64.8,50.8,52.6,48.9,42.8,89,61,31,30.00,29.84,12,2,12,0.00
2012-5-23,87.3,68.8,49.2,55.9,50.7,46.4,94,58,26,29.87,29.72,9,1,9,0.00
2012-5-24,92.2,77.1,59.6,65.6,59.3,52.1,78,56,36,29.79,29.65,18,4,18,0.00
2012-5-25,91.0,80.5,72.6,70.8,66.4,63.3,79,64,42,29.97,29.79,13,2,13,0.00
2012-5-26,95.8,81.5,68.5,71.9,66.2,61.6,84,62,35,30.06,29.93,13,2,13,0.00
2012-5-27,97.1,82.0,66.7,69.2,65.8,62.4,89,61,36,30.00,29.86,13,2,13,0.00
2012-5-28,94.9,82.5,71.1,71.7,67.6,64.4,81,63,41,29.91,29.75,10,1,10,0.00
2012-5-29,91.3,80.6,67.1,69.7,64.8,58.8,83,61,37,29.83,29.75,12,2,12,0.00
2012-5-30,84.5,72.1,60.4,68.9,59.4,53.2,95,68,38,29.94,29.78,14,2,14,0.00
2012-5-31,86.4,70.3,60.1,69.8,61.1,53.8,90,74,46,29.82,29.60,17,3,17,0.04
2012-6-1,69.9,60.3,53.4,53.7,49.3,44.6,87,69,44,29.90,29.73,20,6,20,0.00
2012-6-2,82.2,65.7,48.0,57.0,51.2,45.2,93,64,34,29.95,29.79,17,4,17,0.00
2012-6-3,90.8,74.4,59.5,66.8,60.5,49.3,92,66,27,29.88,29.75,10,2,10,0.07
2012-6-4,89.2,75.0,64.1,72.9,68.6,62.6,97,82,54,29.82,29.64,10,2,10,0.54
2012-6-5,80.5,70.7,61.0,64.6,58.9,51.1,93,69,38,29.87,29.73,9,2,9,0.02
2012-6-6,78.0,67.5,57.1,56.8,52.9,46.3,90,63,36,30.00,29.86,8,1,8,0.00
2012-6-7,80.5,68.1,53.8,57.0,53.0,49.5,93,63,35,30.04,29.97,5,1,5,0.00
2012-6-8,87.3,71.9,54.2,58.9,54.1,47.8,93,59,28,30.05,29.89,9,1,9,0.00
2012-6-9,90.6,76.1,61.9,65.9,59.7,55.8,82,59,37,29.94,29.82,12,2,12,0.00
2012-6-10,81.5,73.6,62.7,69.8,65.1,58.3,88,75,65,29.90,29.82,12,2,12,0.00
2012-6-11,88.9,73.2,66.6,75.8,69.2,64.8,95,88,62,29.95,29.75,33,3,33,0.42
2012-6-12,83.9,73.4,61.3,67.5,61.3,50.2,97,70,38,30.02,29.88,14,2,14,0.00
2012-6-13,84.8,72.5,57.2,61.4,55.2,47.0,90,59,28,30.06,29.94,5,1,5,0.00
2012-6-14,89.2,73.8,57.1,63.6,58.5,53.8,93,64,32,30.01,29.91,6,0,6,0.00
2012-6-15,94.0,79.0,61.3,70.4,65.3,58.3,93,66,36,30.01,29.92,12,1,12,0.00
2012-6-16,94.4,81.9,71.1,73.8,69.7,66.2,93,69,43,30.08,29.92,14,2,14,0.00
2012-6-17,90.2,79.0,70.7,72.3,69.2,66.2,89,73,48,29.98,29.83,14,3,14,0.00
2012-6-18,92.2,80.2,67.6,68.9,65.6,62.0,88,64,37,29.90,29.82,16,3,16,0.00
2012-6-19,93.4,81.1,70.1,71.3,66.2,62.1,83,63,37,30.02,29.90,13,3,13,0.00
2012-6-20,94.5,80.7,67.9,70.2,64.6,60.6,84,61,34,30.05,29.93,14,2,14,0.00
2012-6-21,93.5,79.4,67.1,69.2,65.4,61.3,87,65,37,30.00,29.86,16,3,16,0.00
2012-6-22,92.0,79.4,70.0,67.9,62.5,55.1,91,61,31,29.95,29.84,8,1,8,0.00
2012-6-23,93.7,78.4,61.4,65.9,59.1,52.6,85,56,26,29.95,29.85,10,1,10,0.00
2012-6-24,100.0,81.8,64.6,67.3,61.7,54.6,85,56,26,29.93,29.81,10,1,10,0.00
2012-6-25,96.0,83.1,68.3,70.2,64.8,53.8,87,58,33,29.83,29.73,8,1,8,0.00
2012-6-26,87.4,75.5,63.9,53.8,48.0,40.6,62,40,20,29.90,29.81,10,2,10,0.00
2012-6-27,98.0,77.7,55.8,59.6,53.1,44.3,84,48,19,29.96,29.85,9,2,9,0.00
2012-6-28,104.2,87.2,73.0,67.7,61.4,54.8,63,45,21,29.95,29.85,13,5,13,0.00
2012-6-29,108.0,91.0,77.0,73.4,68.6,56.1,77,52,21,29.88,29.74,12,4,12,0.00
2012-6-30,104.8,90.4,77.7,73.6,68.8,64.7,77,52,29,29.81,29.75,12,4,12,0.00
2012-7-1,103.7,88.7,79.2,75.2,69.8,63.6,73,56,32,29.91,29.81,12,4,12,0.00
2012-7-2,101.4,87.4,75.7,74.3,70.7,65.9,85,60,32,29.95,29.85,17,4,17,0.00
2012-7-3,96.3,81.9,75.9,76.5,71.0,66.5,86,70,46,29.94,29.83,17,2,17,0.01
2012-7-4,103.0,86.9,77.2,75.5,72.3,67.0,81,64,33,29.92,29.83,12,2,12,0.00
2012-7-5,106.3,90.3,76.3,75.3,70.9,63.6,83,57,26,29.93,29.83,12,2,12,0.00
2012-7-6,106.2,89.5,76.5,75.6,70.8,60.7,86,59,26,29.91,29.82,10,2,10,0.00
2012-7-7,105.1,89.5,73.9,76.1,71.9,68.7,88,60,32,29.92,29.82,12,3,12,0.00
2012-7-8,98.5,84.9,71.6,78.0,73.0,67.7,95,70,46,29.96,29.79,17,4,17,1.65
2012-7-9,88.5,78.2,71.7,76.6,73.1,70.5,97,85,64,29.94,29.85,9,1,9,0.02
2012-7-10,88.8,80.0,72.0,74.4,72.1,66.4,96,78,54,29.94,29.86,10,1,10,0.00
2012-7-11,91.8,81.0,70.4,73.9,70.8,65.3,97,74,45,29.97,29.88,9,1,9,0.00
2012-7-12,89.2,77.3,68.1,72.4,68.7,65.9,94,77,57,29.95,29.90,10,1,10,0.00
2012-7-13,84.0,75.9,69.7,74.2,71.2,67.0,96,86,65,30.00,29.93,9,1,9,0.03
2012-7-14,87.5,78.0,72.1,76.0,73.1,69.7,98,86,62,30.05,29.95,8,1,8,0.07
2012-7-15,91.3,80.0,70.2,77.0,73.1,69.0,98,81,58,30.08,29.97,10,1,10,0.00
2012-7-16,93.1,82.7,71.7,77.3,73.7,70.2,97,76,53,30.01,29.86,14,3,14,0.00
2012-7-17,88.6,80.0,75.8,78.3,74.3,72.5,91,83,69,29.91,29.82,7,1,7,0.00
2012-7-18,98.4,85.7,77.0,80.7,76.2,72.4,90,74,49,29.93,29.81,12,3,12,0.00
2012-7-19,98.8,85.1,75.1,81.2,75.7,71.5,89,74,53,29.92,29.77,12,4,12,0.00
2012-7-20,95.5,83.6,72.6,75.7,71.2,67.5,93,68,44,29.93,29.81,12,2,12,0.00
2012-7-21,92.6,81.0,70.1,70.8,66.6,61.4,92,64,39,30.00,29.92,8,1,8,0.00
2012-7-22,98.8,83.4,68.5,75.7,70.2,63.4,91,67,40,30.05,29.96,9,1,9,0.00
2012-7-23,97.3,85.6,74.6,77.8,74.1,71.5,92,70,49,30.08,29.96,16,4,16,0.00
2012-7-24,99.3,87.7,78.4,75.8,73.1,71.4,82,64,42,29.99,29.83,16,7,16,0.00
2012-7-25,100.5,88.3,77.5,75.7,72.9,70.7,85,63,40,29.88,29.75,18,6,18,0.00
2012-7-26,100.1,84.5,70.9,76.4,72.7,67.7,96,70,44,29.84,29.69,21,7,21,0.41
2012-7-27,93.8,80.1,70.4,79.7,73.3,68.5,98,81,55,29.93,29.82,15,4,15,0.01
2012-7-28,92.9,80.2,68.5,70.1,65.3,59.4,95,65,34,30.01,29.92,12,1,12,0.00
2012-7-29,85.0,73.8,66.5,73.9,69.0,63.8,96,85,55,30.06,29.91,5,0,5,0.20
2012-7-30,95.4,82.1,71.9,77.3,72.8,67.5,92,75,52,29.92,29.78,13,2,13,0.00
2012-7-31,98.0,84.8,73.2,76.9,73.6,69.6,93,72,41,29.89,29.80,10,2,10,0.00
2012-8-1,99.3,86.7,76.2,77.2,74.3,70.7,93,70,45,29.85,29.74,13,4,13,0.00
2012-8-2,98.3,85.8,73.1,78.4,74.0,70.7,95,70,43,29.82,29.68,14,3,14,0.01
2012-8-3,95.2,84.7,76.2,78.9,75.3,72.3,89,74,58,29.80,29.73,15,3,15,0.00
2012-8-4,90.4,83.9,78.5,79.0,76.6,75.1,92,79,64,29.95,29.79,15,2,15,0.03
2012-8-5,94.7,82.6,75.6,77.0,73.7,68.7,95,76,55,30.05,29.92,12,2,12,0.00
2012-8-6,95.8,82.0,69.6,68.7,61.2,52.3,85,54,24,30.06,29.92,8,1,8,0.00
2012-8-7,98.0,81.3,64.5,72.0,62.5,57.0,86,57,27,29.96,29.85,12,1,12,0.00
2012-8-8,100.4,83.3,65.2,70.3,63.8,57.1,83,55,28,29.94,29.81,12,2,12,0.00
2012-8-9,97.1,83.3,72.4,71.2,68.3,62.3,92,64,33,29.83,29.68,20,3,20,0.14
2012-8-10,84.7,75.8,64.9,71.7,62.2,54.2,94,65,38,29.90,29.70,13,3,13,0.07
2012-8-11,87.3,72.1,60.3,59.1,53.1,43.6,87,57,24,29.98,29.88,12,1,12,0.00
2012-8-12,86.1,71.2,56.4,63.9,56.3,51.0,86,63,34,30.01,29.90,12,2,12,0.00
2012-8-13,90.2,75.1,69.1,71.3,65.6,57.7,94,73,51,29.90,29.75,22,3,22,0.17
2012-8-14,78.8,70.5,64.9,67.5,63.8,60.6,95,80,57,29.94,29.84,12,2,12,0.00
2012-8-15,92.7,76.8,61.2,64.8,61.3,56.3,95,64,31,29.97,29.85,10,1,10,0.00
2012-8-16,97.6,80.3,67.8,72.6,68.1,61.8,93,69,42,29.94,29.73,24,4,24,0.01
2012-8-17,81.7,71.9,62.1,68.9,63.1,55.4,96,76,44,29.97,29.87,9,1,9,0.01
2012-8-18,85.3,71.3,55.3,59.2,52.6,44.4,92,57,26,29.96,29.83,9,1,9,0.00
2012-8-19,85.6,74.2,58.7,61.7,54.5,48.4,89,55,29,29.90,29.83,17,2,17,0.03
2012-8-20,87.4,72.8,59.6,62.1,55.7,47.6,95,61,28,29.94,29.88,12,1,12,0.00
2012-8-21,92.2,74.2,56.6,59.3,54.9,50.4,88,56,27,30.01,29.92,13,2,13,0.00
2012-8-22,96.7,78.2,60.8,60.4,55.0,46.3,83,50,20,30.02,29.93,12,2,12,0.00
2012-8-23,98.5,78.5,59.6,62.5,54.7,31.8,89,52,10,30.02,29.92,10,1,10,0.00
2012-8-24,94.2,78.8,65.0,65.3,61.0,57.3,83,57,32,30.02,29.92,13,2,13,0.00
2012-8-25,88.4,77.8,68.3,70.6,65.0,61.2,80,66,51,30.01,29.94,16,2,16,0.00
2012-8-26,93.5,80.4,72.1,72.1,68.3,65.5,86,68,43,30.06,29.91,17,3,17,0.00
2012-8-27,92.4,81.8,72.5,74.8,71.0,68.2,89,71,51,30.00,29.90,12,3,12,0.00
2012-8-28,92.2,79.6,68.8,71.1,59.4,50.3,93,55,25,30.01,29.89,12,2,12,0.00
2012-8-29,93.9,80.0,65.2,63.1,58.3,52.4,77,50,27,29.95,29.84,8,1,8,0.00
2012-8-30,94.6,81.9,69.3,75.1,66.4,59.3,74,60,44,29.97,29.86,12,2,12,0.03
2012-8-31,92.4,82.2,76.9,76.3,72.5,70.0,93,74,50,29.99,29.83,15,5,15,0.44
2012-9-1,89.8,78.3,71.6,76.8,73.6,69.2,96,87,63,29.93,29.73,30,5,30,1.01
2012-9-2,80.6,74.8,72.7,76.8,72.9,71.1,98,94,84,29.79,29.74,18,8,18,0.47
2012-9-3,84.8,77.1,73.1,76.7,73.2,71.4,95,88,71,29.83,29.73,12,4,12,0.00
2012-9-4,93.0,80.3,70.3,76.8,72.9,69.4,98,80,53,29.86,29.77,6,1,6,0.00
2012-9-5,89.8,78.7,71.4,77.9,73.1,69.4,96,84,63,29.84,29.71,13,1,13,0.09
2012-9-6,93.0,76.4,67.0,76.1,70.0,63.8,98,83,54,29.98,29.80,39,2,39,0.44
2012-9-7,92.5,77.3,65.2,77.5,70.5,63.6,97,82,59,29.88,29.57,37,4,37,0.26
2012-9-8,75.2,67.5,56.6,69.7,58.2,51.8,96,74,46,29.96,29.73,18,4,18,0.02
2012-9-9,78.8,65.4,55.1,60.4,55.0,51.4,94,73,40,30.07,29.92,15,2,15,0.00
2012-9-10,80.4,67.6,56.0,61.0,56.2,52.7,93,70,41,30.15,30.05,5,0,5,0.00
2012-9-11,87.8,71.5,57.0,61.5,58.1,54.8,94,67,35,30.16,30.05,12,1,12,0.00
2012-9-12,86.0,73.2,63.5,65.5,59.7,54.5,84,65,35,30.18,30.08,10,2,10,0.00
2012-9-13,85.5,73.5,64.8,67.0,62.4,59.8,88,70,46,30.19,30.10,10,2,10,0.00
2012-9-14,73.1,66.8,61.1,64.8,61.8,58.7,93,84,74,30.21,30.14,7,1,7,0.00
2012-9-15,71.7,66.4,61.8,65.3,61.2,55.5,96,84,71,30.21,30.07,5,0,5,0.05
2012-9-16,76.1,68.6,64.0,69.6,66.0,62.8,98,92,78,30.07,29.93,4,0,4,0.19
2012-9-17,73.5,69.9,67.8,70.3,68.2,66.5,98,94,86,29.94,29.71,10,2,10,0.34
2012-9-18,69.7,62.4,49.4,67.0,52.1,43.1,98,72,41,30.05,29.69,16,4,16,0.00
2012-9-19,76.9,59.7,45.0,53.5,46.0,40.4,98,66,30,30.15,30.00,10,2,10,0.00
2012-9-20,83.4,66.5,52.7,60.6,53.6,45.4,90,65,42,30.02,29.89,20,4,20,0.00
2012-9-21,79.7,67.1,56.2,66.7,60.7,54.5,98,81,58,29.98,29.75,24,4,24,0.09
2012-9-22,82.7,66.5,50.8,61.7,49.8,35.2,94,59,29,30.14,29.82,15,3,15,0.00
2012-9-23,68.3,54.6,40.7,45.1,41.2,37.6,92,64,34,30.26,30.14,13,1,13,0.00
2012-9-24,75.7,59.6,42.3,49.1,43.5,39.7,94,60,30,30.23,29.98,9,1,9,0.00
2012-9-25,87.0,72.8,60.5,71.1,62.0,48.8,84,70,56,29.99,29.83,21,5,21,0.00
2012-9-26,86.2,73.0,65.1,71.6,67.0,63.3,96,83,55,30.04,29.92,35,3,35,0.27
2012-9-27,81.7,70.6,64.7,71.9,66.8,63.5,98,89,64,30.10,30.00,9,2,9,0.45
2012-9-28,71.3,67.5,62.2,67.1,64.5,56.9,97,90,78,30.07,29.99,7,0,7,0.01
2012-9-29,75.2,63.5,54.4,58.0,54.7,51.3,92,75,47,30.05,29.92,8,1,8,0.00
2012-9-30,73.3,63.3,53.4,61.7,56.8,51.8,97,81,60,29.93,29.75,5,0,5,0.00
2012-10-1,62.7,58.3,55.9,57.0,54.0,51.9,95,86,72,29.75,29.58,12,2,12,0.09
2012-10-2,64.5,58.3,55.0,55.1,53.2,50.8,92,84,66,29.89,29.66,12,3,12,0.00
2012-10-3,78.3,64.7,52.3,59.5,55.1,50.1,93,73,48,30.06,29.88,15,2,15,0.00
2012-10-4,82.7,67.9,56.4,63.5,58.2,54.0,94,73,46,30.18,30.06,13,2,13,0.00
2012-10-5,70.0,57.5,42.7,60.2,52.8,40.8,94,85,70,30.13,29.94,13,2,13,0.37
2012-10-6,54.9,46.5,38.4,41.6,38.2,33.5,95,75,47,30.21,30.11,9,2,9,0.00
2012-10-7,57.6,48.1,42.9,42.1,38.2,34.3,87,70,46,30.22,30.14,10,2,10,0.00
2012-10-8,65.2,50.8,42.3,43.9,40.5,36.2,93,71,36,30.22,30.08,12,1,12,0.00
2012-10-9,67.5,51.8,38.3,49.0,42.9,36.2,96,74,46,30.11,29.94,15,2,15,0.00
2012-10-10,60.4,53.2,40.1,51.7,39.4,28.8,83,62,31,30.22,29.96,18,4,18,0.00
2012-10-11,63.4,51.3,37.3,48.3,39.9,33.8,89,67,41,30.26,30.11,7,1,7,0.00
2012-10-12,61.6,56.4,52.4,55.6,53.1,48.2,96,89,74,30.29,30.11,16,1,16,1.25
2012-10-13,80.6,67.3,53.9,69.4,61.4,52.2,98,83,59,30.19,29.87,14,3,14,0.00
2012-10-14,73.6,67.2,57.3,65.5,61.2,53.6,95,82,63,29.90,29.73,27,9,27,0.39
2012-10-15,76.0,59.5,49.0,54.8,49.6,45.5,94,73,38,29.98,29.89,15,2,15,0.00
2012-10-16,78.8,63.6,51.8,59.3,51.8,46.7,86,67,42,29.93,29.70,13,2,13,0.00
2012-10-17,78.7,65.3,56.4,60.3,54.9,50.9,94,71,47,29.74,29.32,24,5,24,0.90
2012-10-18,64.8,56.4,49.8,53.9,43.7,34.1,94,67,34,29.70,29.56,27,8,27,0.00
2012-10-19,58.9,53.9,50.3,44.4,41.7,37.1,75,64,50,29.79,29.58,24,8,24,0.00
2012-10-20,68.3,54.1,44.6,49.6,45.7,41.1,90,75,49,29.91,29.78,15,3,15,0.00
2012-10-21,78.2,64.9,51.0,61.8,53.0,45.8,84,67,52,29.98,29.90,14,3,14,0.00
2012-10-22,81.8,69.8,61.1,61.4,53.8,46.3,76,59,30,30.04,29.95,23,4,23,0.00
2012-10-23,81.0,69.1,59.3,62.7,56.1,50.8,77,64,51,30.01,29.91,15,2,15,0.00
2012-10-24,81.7,69.4,59.6,65.4,59.0,54.4,85,70,51,30.02,29.91,15,2,15,0.00
2012-10-25,80.9,70.0,52.0,65.0,60.1,47.2,84,72,55,30.00,29.83,20,4,20,0.00
2012-10-26,51.9,45.2,40.1,47.1,40.1,35.9,93,82,75,30.19,29.99,14,4,14,0.58
2012-10-27,54.4,44.7,37.0,37.7,35.4,33.1,86,71,45,30.18,30.07,13,4,13,0.00
2012-10-28,54.3,44.5,37.3,38.8,34.9,33.1,86,70,49,30.16,30.10,17,4,17,0.00
2012-10-29,55.4,44.8,35.6,36.6,31.1,24.4,86,62,32,30.22,30.01,15,4,15,0.00
2012-10-30,59.5,46.9,37.0,31.1,28.8,26.0,72,52,28,30.01,29.81,24,6,24,0.00
2012-10-31,60.6,46.7,36.8,33.3,27.7,17.6,75,51,22,29.94,29.86,16,4,16,0.00
2012-11-1,64.8,49.0,32.6,41.3,31.9,24.0,78,53,34,30.02,29.86,15,4,15,0.00
2012-11-2,61.4,52.8,45.6,41.8,38.0,32.3,82,59,35,30.01,29.85,13,2,13,0.00
2012-11-3,70.0,53.5,43.1,53.5,41.1,35.7,83,63,49,30.08,29.89,14,4,14,0.00
2012-11-4,54.2,43.6,37.5,39.5,35.6,32.3,92,75,46,30.18,30.08,8,1,8,0.00
2012-11-5,48.7,43.6,41.3,42.1,37.6,34.3,92,80,62,30.12,30.00,10,1,10,0.09
2012-11-6,50.1,46.3,40.6,44.1,41.9,38.5,93,85,77,30.02,29.91,10,3,10,0.00
2012-11-7,50.0,45.4,38.2,42.4,40.0,34.8,91,82,70,30.14,29.89,15,3,15,0.00
2012-11-8,59.6,44.6,31.7,45.6,37.3,29.9,96,78,48,30.24,30.11,12,1,12,0.00
2012-11-9,70.8,55.7,41.5,52.3,43.6,36.8,84,65,49,30.16,30.01,14,2,14,0.00
2012-11-10,73.7,61.5,50.4,57.4,48.4,42.2,80,63,45,30.14,30.02,17,3,17,0.00
2012-11-11,71.0,63.4,52.5,58.2,52.7,45.4,95,69,57,30.06,29.87,20,7,20,0.76
2012-11-12,52.5,42.2,34.7,51.1,33.1,23.5,95,72,38,30.42,29.97,20,5,20,0.57
2012-11-13,49.2,38.8,28.7,30.9,27.3,24.9,91,65,40,30.51,30.41,9,1,9,0.00
2012-11-14,47.2,37.5,30.2,32.8,28.9,25.8,89,72,52,30.44,30.31,6,1,6,0.00
2012-11-15,52.3,40.4,30.6,35.8,31.5,26.8,93,72,47,30.37,30.28,6,0,6,0.00
2012-11-16,55.5,43.2,30.7,37.1,31.5,27.7,93,66,39,30.42,30.33,5,1,5,0.00
2012-11-17,59.5,45.2,30.6,37.9,32.2,26.5,89,63,33,30.47,30.35,5,0,5,0.00
2012-11-18,64.3,48.0,32.1,40.7,35.2,29.4,93,64,36,30.38,30.28,7,1,7,0.00
2012-11-19,65.5,54.2,45.8,42.3,38.2,33.9,66,55,39,30.29,30.11,10,2,10,0.00
2012-11-20,68.4,58.9,50.6,53.7,48.0,41.5,87,68,58,30.12,30.00,14,4,14,0.00
2012-11-21,64.3,53.1,45.9,51.5,47.0,43.7,95,81,58,30.23,30.11,5,1,5,0.00
2012-11-22,68.0,55.0,44.0,50.8,45.7,41.8,93,73,47,30.15,30.02,21,4,21,0.00
2012-11-23,56.0,47.7,33.8,51.1,35.2,20.9,93,63,47,30.29,30.03,20,7,20,0.04
2012-11-24,42.2,33.1,26.9,24.7,21.4,18.9,73,62,46,30.33,30.09,9,2,9,0.00
2012-11-25,58.4,43.0,29.8,35.1,29.4,21.8,76,60,39,30.09,29.93,20,4,20,0.00
2012-11-26,52.8,43.6,37.3,42.3,35.5,28.9,93,74,49,30.25,30.01,12,2,12,0.57
2012-11-27,42.4,34.4,28.2,34.1,28.2,24.8,88,78,59,30.37,30.23,9,2,9,0.00
2012-11-28,51.1,36.7,25.2,35.9,29.7,23.2,95,77,47,30.45,30.33,8,1,8,0.01
2012-11-29,57.5,44.9,33.4,35.3,30.3,26.8,78,58,38,30.33,30.19,15,3,15,0.00
2012-11-30,63.1,52.3,40.7,46.9,40.1,29.0,76,64,49,30.20,30.10,15,4,15,0.00
2012-12-1,65.9,59.0,50.5,53.2,48.6,43.6,78,69,57,30.16,30.02,16,4,16,0.00
2012-12-2,66.4,64.3,62.1,61.6,58.2,51.3,88,81,67,30.08,30.02,20,7,20,0.00
2012-12-3,72.5,66.0,61.2,61.8,58.6,54.8,88,78,65,30.08,29.97,21,6,21,0.00
2012-12-4,66.6,59.0,45.6,62.4,54.9,43.1,95,87,75,30.23,29.97,16,5,16,0.16
2012-12-5,59.9,49.2,40.6,46.2,39.4,33.8,94,71,41,30.31,30.09,6,1,6,0.00
2012-12-6,57.7,49.7,40.8,53.0,44.9,34.6,96,84,72,30.10,29.91,6,1,6,0.00
2012-12-7,62.4,57.6,54.0,58.8,55.7,52.6,98,93,85,29.91,29.79,12,2,12,0.00
2012-12-8,59.4,54.6,50.1,57.0,52.1,47.9,95,91,82,29.91,29.80,8,3,8,0.00
2012-12-9,63.9,56.7,47.6,61.9,55.2,45.6,97,95,92,29.88,29.68,31,4,31,0.30
2012-12-10,47.5,35.5,30.5,45.5,30.6,23.7,93,82,75,30.06,29.77,18,7,18,0.00
2012-12-11,42.2,33.0,25.9,30.5,25.5,21.6,89,74,59,30.25,30.05,10,2,10,0.00
2012-12-12,48.8,36.1,25.6,32.9,26.5,23.3,94,70,43,30.36,30.24,5,0,5,0.01
2012-12-13,56.0,41.5,30.6,31.1,26.1,23.5,79,57,32,30.37,30.23,8,1,8,0.00
2012-12-14,55.4,45.8,33.0,39.3,30.7,22.9,67,56,39,30.27,30.02,15,2,15,0.00
2012-12-15,61.9,54.2,47.6,59.5,50.8,39.2,94,88,67,30.02,29.71,20,8,20,0.14
2012-12-16,61.7,58.1,54.7,59.4,55.2,51.9,96,90,76,29.74,29.61,15,5,15,0.00
2012-12-17,57.0,53.8,44.6,54.9,51.4,41.9,97,92,79,29.68,29.56,18,6,18,0.00
2012-12-18,57.3,51.5,47.8,43.5,42.5,41.3,80,71,56,29.86,29.76,13,5,13,0.00
2012-12-19,61.7,52.4,39.5,53.4,45.3,36.8,92,78,58,29.95,29.60,17,4,17,0.00
2012-12-20,62.6,47.7,31.0,56.3,39.7,21.9,94,74,57,29.95,29.33,44,16,44,0.44
2012-12-21,43.2,34.4,29.4,21.9,16.8,10.4,70,50,32,30.27,29.95,22,11,22,0.00
2012-12-22,49.7,36.9,23.2,29.8,20.6,14.2,74,53,32,30.31,30.01,9,2,9,0.00
2012-12-23,60.0,49.9,43.1,48.4,40.8,29.5,94,71,57,30.01,29.78,16,4,16,0.00
2012-12-24,51.3,43.3,30.4,48.6,38.9,26.4,97,85,59,30.05,29.73,13,3,13,0.00
2012-12-25,36.4,33.1,29.6,31.6,28.2,25.6,91,82,75,30.12,29.64,23,6,23,0.01
2012-12-26,33.4,31.4,30.0,31.0,29.2,26.4,96,91,85,30.13,29.60,24,9,24,0.00
2012-12-27,34.3,31.0,28.0,29.0,27.0,25.2,90,85,77,30.21,30.05,8,1,8,0.00
2012-12-28,37.7,33.8,29.2,33.9,31.2,26.6,96,90,83,30.07,29.79,9,2,9,0.07
2012-12-29,32.9,30.0,23.5,31.7,27.3,20.9,96,90,78,30.36,29.83,20,6,20,0.01
2012-12-30,40.5,30.2,19.9,31.1,25.3,18.0,94,83,67,30.50,30.30,12,1,12,0.00
2012-12-31,40.5,36.2,32.2,35.4,31.2,26.7,95,82,70,30.30,30.02,8,1,8,0.34
2013-1-1,35.8,30.3,23.5,34.5,27.9,19.8,96,91,84,30.22,30.01,12,3,12,0.00